GEC2510 EPWR-EDDP
Flight info
| Callsign | GEC2510 |
|---|---|
| Flight time | 1h 7m |
| Altitude | 32000 |
| Route | ULGIL DCT EKSEK DCT NAROX DCT IVDUF DCT IVQOQ DCT YAWOY YAWOY1R |
| Aircraft | MD11/H-SDE1E2E3FGHIJ2J3J4J5M1RWXY/LB1D1 |
Departure
| Time | 2026-05-07 18:21 |
|---|---|
| Airport | Copernicus Wrocław Airport (EPWR) |
Arrival
| Time | 2026-05-07 19:28 |
|---|---|
| Airport | Leipzig/Halle Airport (EDDP) |
| Time | Latitude | Longitude | Altitude | Speed | Heading |
|---|---|---|---|---|---|
| 2026-05-07 17:58 | 51.10800 | 16.88198 | 429 ft | 0 kts | 26° |
| 2026-05-07 18:07 | 51.10785 | 16.88187 | 416 ft | 4 kts | 16° |
| 2026-05-07 18:07 | 51.10761 | 16.88180 | 419 ft | 4 kts | 352° |
| 2026-05-07 18:07 | 51.10735 | 16.88191 | 416 ft | 4 kts | 336° |
| 2026-05-07 18:08 | 51.10726 | 16.88197 | 429 ft | 0 kts | 336° |
| 2026-05-07 18:09 | 51.10727 | 16.88197 | 429 ft | 1 kts | 336° |
| 2026-05-07 18:10 | 51.10733 | 16.88185 | 429 ft | 3 kts | 310° |
| 2026-05-07 18:10 | 51.10748 | 16.88125 | 427 ft | 10 kts | 292° |
| 2026-05-07 18:10 | 51.10788 | 16.87989 | 418 ft | 17 kts | 296° |
| 2026-05-07 18:10 | 51.10849 | 16.87794 | 416 ft | 22 kts | 296° |
| 2026-05-07 18:11 | 51.10917 | 16.87575 | 425 ft | 16 kts | 296° |
| 2026-05-07 18:11 | 51.10938 | 16.87442 | 403 ft | 11 kts | 253° |
| 2026-05-07 18:11 | 51.10934 | 16.87429 | 417 ft | 0 kts | 242° |
| 2026-05-07 18:12 | 51.10929 | 16.87422 | 429 ft | 3 kts | 226° |
| 2026-05-07 18:13 | 51.10876 | 16.87382 | 419 ft | 14 kts | 195° |
| 2026-05-07 18:13 | 51.10817 | 16.87333 | 419 ft | 7 kts | 213° |
| 2026-05-07 18:13 | 51.10786 | 16.87302 | 420 ft | 0 kts | 207° |
| 2026-05-07 18:14 | 51.10777 | 16.87294 | 417 ft | 4 kts | 207° |
| 2026-05-07 18:14 | 51.10723 | 16.87262 | 424 ft | 13 kts | 187° |
| 2026-05-07 18:15 | 51.10644 | 16.87350 | 411 ft | 17 kts | 121° |
| 2026-05-07 18:15 | 51.10584 | 16.87542 | 412 ft | 22 kts | 114° |
| 2026-05-07 18:15 | 51.10512 | 16.87788 | 411 ft | 27 kts | 115° |
| 2026-05-07 18:15 | 51.10428 | 16.88072 | 418 ft | 30 kts | 116° |
| 2026-05-07 18:16 | 51.10332 | 16.88385 | 413 ft | 33 kts | 116° |
| 2026-05-07 18:16 | 51.10226 | 16.88725 | 414 ft | 34 kts | 116° |
| 2026-05-07 18:16 | 51.10123 | 16.89051 | 416 ft | 32 kts | 115° |
| 2026-05-07 18:16 | 51.10031 | 16.89353 | 419 ft | 29 kts | 117° |
| 2026-05-07 18:17 | 51.09947 | 16.89631 | 416 ft | 26 kts | 115° |
| 2026-05-07 18:17 | 51.09923 | 16.89758 | 415 ft | 5 kts | 76° |
| 2026-05-07 18:17 | 51.09955 | 16.89816 | 417 ft | 7 kts | 34° |
| 2026-05-07 18:17 | 51.10007 | 16.89860 | 419 ft | 10 kts | 28° |
| 2026-05-07 18:18 | 51.10025 | 16.89971 | 425 ft | 13 kts | 107° |
| 2026-05-07 18:18 | 51.10031 | 16.90030 | 426 ft | 5 kts | 52° |
| 2026-05-07 18:18 | 51.10084 | 16.90084 | 419 ft | 14 kts | 35° |
| 2026-05-07 18:18 | 51.10135 | 16.90101 | 416 ft | 5 kts | 329° |
| 2026-05-07 18:19 | 51.10162 | 16.90019 | 419 ft | 10 kts | 276° |
| 2026-05-07 18:19 | 51.10121 | 16.89960 | 422 ft | 13 kts | 208° |
| 2026-05-07 18:19 | 51.10017 | 16.89874 | 415 ft | 18 kts | 206° |
| 2026-05-07 18:19 | 51.09928 | 16.89800 | 414 ft | 7 kts | 218° |
| 2026-05-07 18:20 | 51.09922 | 16.89778 | 412 ft | 0 kts | 261° |
| 2026-05-07 18:20 | 51.09926 | 16.89725 | 416 ft | 10 kts | 282° |
| 2026-05-07 18:20 | 51.09997 | 16.89472 | 417 ft | 59 kts | 296° |
| 2026-05-07 18:20 | 51.10317 | 16.88430 | 421 ft | 144 kts | 296° |
| 2026-05-07 18:21 | 51.10810 | 16.86777 | 730 ft | 181 kts | 296° |
| 2026-05-07 18:21 | 51.11366 | 16.84903 | 1741 ft | 180 kts | 297° |
| 2026-05-07 18:21 | 51.11874 | 16.83196 | 2959 ft | 178 kts | 296° |
| 2026-05-07 18:21 | 51.12385 | 16.81478 | 3984 ft | 170 kts | 288° |
| 2026-05-07 18:22 | 51.12581 | 16.79453 | 4329 ft | 206 kts | 273° |
| 2026-05-07 18:22 | 51.12627 | 16.77811 | 4429 ft | 235 kts | 272° |
| 2026-05-07 18:22 | 51.12733 | 16.74152 | 5421 ft | 254 kts | 272° |
| 2026-05-07 18:22 | 51.12832 | 16.71330 | 6505 ft | 258 kts | 272° |
| 2026-05-07 18:23 | 51.12949 | 16.68446 | 7503 ft | 262 kts | 272° |
| 2026-05-07 18:23 | 51.13077 | 16.65518 | 8504 ft | 266 kts | 272° |
| 2026-05-07 18:23 | 51.13214 | 16.62552 | 9482 ft | 271 kts | 272° |
| 2026-05-07 18:23 | 51.13358 | 16.59531 | 10302 ft | 281 kts | 272° |
| 2026-05-07 18:24 | 51.13515 | 16.56239 | 10435 ft | 314 kts | 272° |
| 2026-05-07 18:24 | 51.13692 | 16.52593 | 10646 ft | 343 kts | 273° |
| 2026-05-07 18:24 | 51.13882 | 16.48773 | 11492 ft | 349 kts | 273° |
| 2026-05-07 18:24 | 51.14077 | 16.44892 | 12405 ft | 354 kts | 273° |
| 2026-05-07 18:25 | 51.14275 | 16.40967 | 13272 ft | 359 kts | 273° |
| 2026-05-07 18:25 | 51.14471 | 16.37029 | 14077 ft | 363 kts | 272° |
| 2026-05-07 18:25 | 51.14671 | 16.32991 | 14852 ft | 368 kts | 272° |
| 2026-05-07 18:25 | 51.14872 | 16.28900 | 15584 ft | 372 kts | 272° |
| 2026-05-07 18:26 | 51.15073 | 16.24766 | 16293 ft | 376 kts | 272° |
| 2026-05-07 18:26 | 51.15276 | 16.20581 | 17000 ft | 381 kts | 272° |
| 2026-05-07 18:26 | 51.15479 | 16.16345 | 17701 ft | 385 kts | 272° |
| 2026-05-07 18:26 | 51.15682 | 16.12074 | 18390 ft | 388 kts | 272° |
| 2026-05-07 18:27 | 51.15886 | 16.07763 | 18974 ft | 392 kts | 272° |
| 2026-05-07 18:27 | 51.16089 | 16.03426 | 19551 ft | 396 kts | 271° |
| 2026-05-07 18:27 | 51.16293 | 15.99036 | 20110 ft | 399 kts | 271° |
| 2026-05-07 18:27 | 51.16428 | 15.96100 | 20466 ft | 401 kts | 271° |
| 2026-05-07 18:28 | 51.16702 | 15.90123 | 21236 ft | 406 kts | 271° |
| 2026-05-07 18:28 | 51.16905 | 15.85626 | 21816 ft | 410 kts | 272° |
| 2026-05-07 18:28 | 51.17110 | 15.81070 | 22342 ft | 414 kts | 272° |
| 2026-05-07 18:28 | 51.17315 | 15.76474 | 22938 ft | 418 kts | 272° |
| 2026-05-07 18:29 | 51.17517 | 15.71884 | 23537 ft | 422 kts | 272° |
| 2026-05-07 18:29 | 51.17722 | 15.67200 | 24061 ft | 425 kts | 271° |
| 2026-05-07 18:29 | 51.17926 | 15.62492 | 24593 ft | 428 kts | 271° |
| 2026-05-07 18:29 | 51.18131 | 15.57729 | 25137 ft | 431 kts | 271° |
| 2026-05-07 18:30 | 51.18334 | 15.52929 | 25693 ft | 435 kts | 271° |
| 2026-05-07 18:30 | 51.18521 | 15.48093 | 26236 ft | 438 kts | 270° |
| 2026-05-07 18:30 | 51.18697 | 15.43229 | 26737 ft | 442 kts | 270° |
| 2026-05-07 18:30 | 51.18878 | 15.38329 | 27121 ft | 444 kts | 270° |
| 2026-05-07 18:31 | 51.19066 | 15.33386 | 27538 ft | 448 kts | 272° |
| 2026-05-07 18:31 | 51.19261 | 15.28405 | 27914 ft | 453 kts | 272° |
| 2026-05-07 18:31 | 51.19459 | 15.23381 | 28014 ft | 455 kts | 272° |
| 2026-05-07 18:32 | 51.19855 | 15.13349 | 28037 ft | 457 kts | 272° |
| 2026-05-07 18:32 | 51.20249 | 15.03235 | 28034 ft | 457 kts | 272° |
| 2026-05-07 18:33 | 51.20834 | 14.93144 | 28044 ft | 457 kts | 274° |
| 2026-05-07 18:33 | 51.21185 | 14.88164 | 27366 ft | 449 kts | 276° |
| 2026-05-07 18:33 | 51.21544 | 14.83202 | 26018 ft | 453 kts | 276° |
| 2026-05-07 18:33 | 51.21905 | 14.78214 | 24666 ft | 456 kts | 276° |
| 2026-05-07 18:34 | 51.22265 | 14.73164 | 23388 ft | 457 kts | 276° |
| 2026-05-07 18:34 | 51.22618 | 14.68156 | 22266 ft | 451 kts | 276° |
| 2026-05-07 18:34 | 51.22960 | 14.63224 | 21201 ft | 444 kts | 276° |
| 2026-05-07 18:34 | 51.23221 | 14.58366 | 20151 ft | 437 kts | 271° |
| 2026-05-07 18:35 | 51.23203 | 14.53557 | 19191 ft | 430 kts | 266° |
| 2026-05-07 18:35 | 51.23030 | 14.48829 | 18313 ft | 423 kts | 265° |
| 2026-05-07 18:35 | 51.22802 | 14.44180 | 17909 ft | 423 kts | 265° |
| 2026-05-07 18:35 | 51.22567 | 14.39529 | 17515 ft | 419 kts | 265° |
| 2026-05-07 18:36 | 51.22342 | 14.34911 | 17162 ft | 415 kts | 265° |
| 2026-05-07 18:36 | 51.22128 | 14.30321 | 17069 ft | 413 kts | 265° |
| 2026-05-07 18:36 | 51.21921 | 14.25749 | 17057 ft | 413 kts | 265° |
| 2026-05-07 18:36 | 51.21716 | 14.21178 | 17054 ft | 413 kts | 265° |
| 2026-05-07 18:37 | 51.21515 | 14.16662 | 17053 ft | 412 kts | 265° |
| 2026-05-07 18:37 | 51.21312 | 14.12103 | 17053 ft | 411 kts | 265° |
| 2026-05-07 18:37 | 51.21108 | 14.07564 | 17052 ft | 410 kts | 265° |
| 2026-05-07 18:37 | 51.20902 | 14.03033 | 17051 ft | 409 kts | 265° |
| 2026-05-07 18:38 | 51.20695 | 13.98510 | 17049 ft | 409 kts | 265° |
| 2026-05-07 18:38 | 51.20486 | 13.94001 | 17049 ft | 407 kts | 265° |
| 2026-05-07 18:38 | 51.20277 | 13.89500 | 17048 ft | 405 kts | 265° |
| 2026-05-07 18:38 | 51.20066 | 13.85020 | 17048 ft | 405 kts | 265° |
| 2026-05-07 18:39 | 51.19854 | 13.80547 | 17048 ft | 405 kts | 265° |
| 2026-05-07 18:39 | 51.19641 | 13.76082 | 17048 ft | 403 kts | 265° |
| 2026-05-07 18:39 | 51.19426 | 13.71627 | 17047 ft | 402 kts | 265° |
| 2026-05-07 18:39 | 51.19211 | 13.67188 | 17047 ft | 401 kts | 265° |
| 2026-05-07 18:40 | 51.18994 | 13.62765 | 17048 ft | 400 kts | 265° |
| 2026-05-07 18:40 | 51.18776 | 13.58334 | 17050 ft | 400 kts | 265° |
| 2026-05-07 18:40 | 51.18557 | 13.53926 | 17052 ft | 398 kts | 265° |
| 2026-05-07 18:40 | 51.18337 | 13.49529 | 17053 ft | 397 kts | 265° |
| 2026-05-07 18:41 | 51.18115 | 13.45146 | 17056 ft | 397 kts | 265° |
| 2026-05-07 18:41 | 51.17896 | 13.40826 | 17063 ft | 396 kts | 264° |
| 2026-05-07 18:41 | 51.17672 | 13.36459 | 17063 ft | 395 kts | 265° |
| 2026-05-07 18:41 | 51.17504 | 13.32088 | 17063 ft | 394 kts | 267° |
| 2026-05-07 18:42 | 51.17427 | 13.27722 | 17064 ft | 393 kts | 268° |
| 2026-05-07 18:42 | 51.17395 | 13.23408 | 17069 ft | 392 kts | 269° |
| 2026-05-07 18:42 | 51.17380 | 13.19065 | 17077 ft | 391 kts | 269° |
| 2026-05-07 18:42 | 51.17370 | 13.14725 | 17073 ft | 390 kts | 269° |
| 2026-05-07 18:43 | 51.17358 | 13.10396 | 17076 ft | 389 kts | 269° |
| 2026-05-07 18:43 | 51.17344 | 13.06139 | 17074 ft | 389 kts | 269° |
| 2026-05-07 18:43 | 51.17326 | 13.01835 | 17075 ft | 389 kts | 269° |
| 2026-05-07 18:43 | 51.17306 | 12.97524 | 17075 ft | 389 kts | 269° |
| 2026-05-07 18:44 | 51.17285 | 12.93248 | 16403 ft | 385 kts | 269° |
| 2026-05-07 18:44 | 51.17261 | 12.88997 | 15620 ft | 381 kts | 270° |
| 2026-05-07 18:44 | 51.17266 | 12.84809 | 14844 ft | 376 kts | 273° |
| 2026-05-07 18:44 | 51.17687 | 12.80722 | 14084 ft | 372 kts | 285° |
| 2026-05-07 18:45 | 51.18220 | 12.78132 | 13542 ft | 370 kts | 290° |
| 2026-05-07 18:45 | 51.19174 | 12.74364 | 12749 ft | 365 kts | 292° |
| 2026-05-07 18:45 | 51.20179 | 12.70682 | 12214 ft | 359 kts | 293° |
| 2026-05-07 18:45 | 51.21175 | 12.67057 | 11620 ft | 356 kts | 293° |
| 2026-05-07 18:46 | 51.22159 | 12.63424 | 10909 ft | 354 kts | 292° |
| 2026-05-07 18:46 | 51.23116 | 12.59833 | 10239 ft | 350 kts | 292° |
| 2026-05-07 18:46 | 51.24050 | 12.56292 | 9868 ft | 337 kts | 292° |
| 2026-05-07 18:46 | 51.24926 | 12.52933 | 9723 ft | 319 kts | 291° |
| 2026-05-07 18:47 | 51.25560 | 12.49648 | 9577 ft | 302 kts | 279° |
| 2026-05-07 18:47 | 51.25675 | 12.46381 | 9433 ft | 287 kts | 269° |
| 2026-05-07 18:47 | 51.25568 | 12.43272 | 9298 ft | 275 kts | 267° |
| 2026-05-07 18:47 | 51.25421 | 12.40253 | 8919 ft | 271 kts | 266° |
| 2026-05-07 18:48 | 51.25270 | 12.37256 | 8531 ft | 271 kts | 266° |
| 2026-05-07 18:48 | 51.25123 | 12.34306 | 8193 ft | 269 kts | 266° |
| 2026-05-07 18:48 | 51.24978 | 12.31345 | 8094 ft | 268 kts | 267° |
| 2026-05-07 18:48 | 51.24840 | 12.28371 | 8082 ft | 268 kts | 268° |
| 2026-05-07 18:49 | 51.24941 | 12.25427 | 7676 ft | 266 kts | 281° |
| 2026-05-07 18:49 | 51.25329 | 12.22541 | 7252 ft | 265 kts | 284° |
| 2026-05-07 18:49 | 51.25776 | 12.19695 | 6848 ft | 264 kts | 285° |
| 2026-05-07 18:49 | 51.26235 | 12.16848 | 6474 ft | 263 kts | 285° |
| 2026-05-07 18:50 | 51.26690 | 12.14030 | 6056 ft | 262 kts | 285° |
| 2026-05-07 18:50 | 51.27143 | 12.11213 | 5658 ft | 261 kts | 285° |
| 2026-05-07 18:50 | 51.27591 | 12.08416 | 5269 ft | 259 kts | 285° |
| 2026-05-07 18:50 | 51.28035 | 12.05636 | 4889 ft | 258 kts | 285° |
| 2026-05-07 18:51 | 51.28420 | 12.02844 | 4481 ft | 257 kts | 277° |
| 2026-05-07 18:51 | 51.28449 | 11.99993 | 4113 ft | 255 kts | 268° |
| 2026-05-07 18:51 | 51.28340 | 11.97229 | 4001 ft | 243 kts | 266° |
| 2026-05-07 18:51 | 51.28215 | 11.94607 | 3999 ft | 233 kts | 266° |
| 2026-05-07 18:52 | 51.28233 | 11.92050 | 4009 ft | 230 kts | 284° |
| 2026-05-07 18:52 | 51.28906 | 11.89760 | 4019 ft | 229 kts | 303° |
| 2026-05-07 18:52 | 51.29783 | 11.87631 | 4003 ft | 229 kts | 304° |
| 2026-05-07 18:52 | 51.30666 | 11.85507 | 4003 ft | 230 kts | 304° |
| 2026-05-07 18:53 | 51.31672 | 11.83549 | 3963 ft | 226 kts | 322° |
| 2026-05-07 18:53 | 51.33055 | 11.82581 | 3523 ft | 219 kts | 355° |
| 2026-05-07 18:53 | 51.34554 | 11.82965 | 3168 ft | 220 kts | 21° |
| 2026-05-07 18:53 | 51.35837 | 11.84244 | 3007 ft | 219 kts | 47° |
| 2026-05-07 18:54 | 51.36750 | 11.86157 | 3016 ft | 219 kts | 54° |
| 2026-05-07 18:54 | 51.37626 | 11.88171 | 3006 ft | 220 kts | 54° |
| 2026-05-07 18:54 | 51.38502 | 11.90181 | 3002 ft | 220 kts | 54° |
| 2026-05-07 18:54 | 51.39377 | 11.92195 | 3011 ft | 220 kts | 56° |
| 2026-05-07 18:55 | 51.39886 | 11.94498 | 3006 ft | 222 kts | 81° |
| 2026-05-07 18:55 | 51.40050 | 11.96965 | 3008 ft | 223 kts | 83° |
| 2026-05-07 18:55 | 51.40172 | 11.99433 | 3001 ft | 217 kts | 84° |
| 2026-05-07 18:55 | 51.40279 | 12.01708 | 2822 ft | 193 kts | 84° |
| 2026-05-07 18:56 | 51.40376 | 12.03761 | 2521 ft | 176 kts | 84° |
| 2026-05-07 18:56 | 51.40466 | 12.05675 | 2299 ft | 170 kts | 84° |
| 2026-05-07 18:56 | 51.40557 | 12.07575 | 2086 ft | 171 kts | 84° |
| 2026-05-07 18:56 | 51.40647 | 12.09471 | 1850 ft | 171 kts | 84° |
| 2026-05-07 18:57 | 51.40736 | 12.11366 | 1622 ft | 170 kts | 84° |
| 2026-05-07 18:57 | 51.40824 | 12.13257 | 1378 ft | 170 kts | 84° |
| 2026-05-07 18:57 | 51.40911 | 12.15115 | 1134 ft | 165 kts | 84° |
| 2026-05-07 18:57 | 51.40999 | 12.16948 | 824 ft | 164 kts | 84° |
| 2026-05-07 18:58 | 51.41083 | 12.18770 | 660 ft | 164 kts | 84° |
| 2026-05-07 18:58 | 51.41166 | 12.20583 | 482 ft | 163 kts | 83° |
| 2026-05-07 18:58 | 51.41256 | 12.22240 | 467 ft | 131 kts | 86° |
| 2026-05-07 18:58 | 51.41323 | 12.23890 | 534 ft | 172 kts | 85° |
| 2026-05-07 18:59 | 51.41407 | 12.25897 | 1182 ft | 182 kts | 84° |
| 2026-05-07 18:59 | 51.41491 | 12.27703 | 1600 ft | 165 kts | 83° |
| 2026-05-07 18:59 | 51.41584 | 12.29475 | 2419 ft | 160 kts | 83° |
| 2026-05-07 18:59 | 51.41677 | 12.31267 | 3168 ft | 161 kts | 83° |
| 2026-05-07 19:00 | 51.41773 | 12.33098 | 3940 ft | 171 kts | 83° |
| 2026-05-07 19:00 | 51.41888 | 12.35165 | 4391 ft | 198 kts | 83° |
| 2026-05-07 19:00 | 51.42018 | 12.37441 | 4791 ft | 209 kts | 83° |
| 2026-05-07 19:00 | 51.42137 | 12.39788 | 4985 ft | 213 kts | 89° |
| 2026-05-07 19:01 | 51.41746 | 12.42027 | 4989 ft | 219 kts | 121° |
| 2026-05-07 19:01 | 51.40578 | 12.43693 | 5014 ft | 232 kts | 154° |
| 2026-05-07 19:01 | 51.38985 | 12.44157 | 5011 ft | 237 kts | 185° |
| 2026-05-07 19:01 | 51.37446 | 12.43287 | 5028 ft | 236 kts | 211° |
| 2026-05-07 19:02 | 51.36056 | 12.41855 | 5026 ft | 238 kts | 214° |
| 2026-05-07 19:02 | 51.34680 | 12.40383 | 5016 ft | 238 kts | 214° |
| 2026-05-07 19:02 | 51.33304 | 12.38912 | 5009 ft | 237 kts | 214° |
| 2026-05-07 19:02 | 51.31964 | 12.37481 | 5004 ft | 227 kts | 214° |
| 2026-05-07 19:03 | 51.30650 | 12.36079 | 5001 ft | 227 kts | 214° |
| 2026-05-07 19:03 | 51.29334 | 12.34673 | 4993 ft | 227 kts | 214° |
| 2026-05-07 19:03 | 51.28017 | 12.33269 | 4978 ft | 227 kts | 214° |
| 2026-05-07 19:03 | 51.26703 | 12.31867 | 4997 ft | 227 kts | 214° |
| 2026-05-07 19:04 | 51.25389 | 12.30467 | 4976 ft | 227 kts | 214° |
| 2026-05-07 19:04 | 51.24074 | 12.29067 | 4990 ft | 227 kts | 214° |
| 2026-05-07 19:04 | 51.22762 | 12.27667 | 4990 ft | 227 kts | 214° |
| 2026-05-07 19:04 | 51.21679 | 12.25929 | 4960 ft | 224 kts | 242° |
| 2026-05-07 19:05 | 51.21308 | 12.23563 | 4989 ft | 221 kts | 271° |
| 2026-05-07 19:05 | 51.21363 | 12.21101 | 5005 ft | 222 kts | 274° |
| 2026-05-07 19:05 | 51.21452 | 12.18644 | 4993 ft | 222 kts | 275° |
| 2026-05-07 19:05 | 51.21540 | 12.16182 | 4983 ft | 222 kts | 274° |
| 2026-05-07 19:06 | 51.21626 | 12.13719 | 4998 ft | 223 kts | 275° |
| 2026-05-07 19:06 | 51.21797 | 12.08780 | 5003 ft | 223 kts | 275° |
| 2026-05-07 19:06 | 51.21909 | 12.06320 | 4984 ft | 222 kts | 279° |
| 2026-05-07 19:07 | 51.22481 | 12.04089 | 4969 ft | 218 kts | 310° |
| 2026-05-07 19:07 | 51.23619 | 12.02493 | 5012 ft | 219 kts | 324° |
| 2026-05-07 19:07 | 51.24846 | 12.01056 | 4979 ft | 218 kts | 324° |
| 2026-05-07 19:07 | 51.26072 | 11.99621 | 4999 ft | 219 kts | 324° |
| 2026-05-07 19:08 | 51.27299 | 11.98179 | 4999 ft | 219 kts | 324° |
| 2026-05-07 19:08 | 51.28531 | 11.96728 | 4996 ft | 219 kts | 324° |
| 2026-05-07 19:08 | 51.29743 | 11.95299 | 4611 ft | 216 kts | 324° |
| 2026-05-07 19:08 | 51.30950 | 11.93865 | 4234 ft | 218 kts | 324° |
| 2026-05-07 19:09 | 51.32140 | 11.92454 | 4003 ft | 201 kts | 324° |
| 2026-05-07 19:09 | 51.33220 | 11.91177 | 3968 ft | 186 kts | 326° |
| 2026-05-07 19:09 | 51.34379 | 11.90392 | 3520 ft | 180 kts | 353° |
| 2026-05-07 19:09 | 51.35627 | 11.90155 | 3197 ft | 182 kts | 357° |
| 2026-05-07 19:10 | 51.36802 | 11.90546 | 2924 ft | 173 kts | 34° |
| 2026-05-07 19:10 | 51.37602 | 11.91995 | 3050 ft | 179 kts | 54° |
| 2026-05-07 19:10 | 51.38319 | 11.93640 | 3009 ft | 180 kts | 54° |
| 2026-05-07 19:10 | 51.39035 | 11.95278 | 2999 ft | 180 kts | 54° |
| 2026-05-07 19:11 | 51.39743 | 11.96926 | 2998 ft | 179 kts | 59° |
| 2026-05-07 19:11 | 51.40060 | 11.98840 | 2996 ft | 180 kts | 82° |
| 2026-05-07 19:11 | 51.40206 | 12.00861 | 2937 ft | 184 kts | 82° |
| 2026-05-07 19:11 | 51.40339 | 12.02875 | 2666 ft | 180 kts | 84° |
| 2026-05-07 19:12 | 51.40432 | 12.04865 | 2443 ft | 180 kts | 84° |
| 2026-05-07 19:12 | 51.40525 | 12.06842 | 2178 ft | 180 kts | 84° |
| 2026-05-07 19:12 | 51.40619 | 12.08847 | 1943 ft | 180 kts | 84° |
| 2026-05-07 19:12 | 51.40713 | 12.10846 | 1687 ft | 180 kts | 84° |
| 2026-05-07 19:13 | 51.40805 | 12.12833 | 1418 ft | 175 kts | 84° |
| 2026-05-07 19:13 | 51.40891 | 12.14692 | 1161 ft | 166 kts | 84° |
| 2026-05-07 19:13 | 51.40977 | 12.16529 | 937 ft | 165 kts | 84° |
| 2026-05-07 19:13 | 51.41063 | 12.18359 | 718 ft | 164 kts | 84° |
| 2026-05-07 19:14 | 51.41143 | 12.20176 | 528 ft | 163 kts | 83° |
| 2026-05-07 19:14 | 51.41232 | 12.21982 | 524 ft | 163 kts | 83° |
| 2026-05-07 19:14 | 51.41310 | 12.23791 | 562 ft | 163 kts | 84° |
| 2026-05-07 19:14 | 51.41408 | 12.25662 | 737 ft | 179 kts | 83° |
| 2026-05-07 19:15 | 51.41521 | 12.27718 | 1278 ft | 198 kts | 83° |
| 2026-05-07 19:15 | 51.41647 | 12.29966 | 1834 ft | 207 kts | 83° |
| 2026-05-07 19:15 | 51.41777 | 12.32262 | 3060 ft | 207 kts | 83° |
| 2026-05-07 19:15 | 51.41894 | 12.34600 | 4091 ft | 224 kts | 85° |
| 2026-05-07 19:16 | 51.41969 | 12.37114 | 4474 ft | 225 kts | 86° |
| 2026-05-07 19:16 | 51.42036 | 12.39631 | 4858 ft | 227 kts | 86° |
| 2026-05-07 19:16 | 51.41809 | 12.42114 | 4969 ft | 230 kts | 112° |
| 2026-05-07 19:16 | 51.40818 | 12.44105 | 5006 ft | 233 kts | 144° |
| 2026-05-07 19:17 | 51.39305 | 12.44998 | 5000 ft | 236 kts | 175° |
| 2026-05-07 19:17 | 51.37702 | 12.44510 | 5003 ft | 237 kts | 208° |
| 2026-05-07 19:17 | 51.36464 | 12.42834 | 5014 ft | 235 kts | 232° |
| 2026-05-07 19:17 | 51.35462 | 12.40739 | 5015 ft | 237 kts | 234° |
| 2026-05-07 19:18 | 51.34486 | 12.38631 | 4988 ft | 236 kts | 234° |
| 2026-05-07 19:18 | 51.33506 | 12.36515 | 5004 ft | 236 kts | 234° |
| 2026-05-07 19:18 | 51.32532 | 12.34406 | 4987 ft | 236 kts | 234° |
| 2026-05-07 19:18 | 51.31674 | 12.32187 | 4961 ft | 235 kts | 252° |
| 2026-05-07 19:19 | 51.31351 | 12.29650 | 5000 ft | 235 kts | 264° |
| 2026-05-07 19:19 | 51.31156 | 12.27058 | 4994 ft | 234 kts | 264° |
| 2026-05-07 19:19 | 51.30966 | 12.24481 | 4996 ft | 234 kts | 264° |
| 2026-05-07 19:19 | 51.30776 | 12.21906 | 4892 ft | 232 kts | 264° |
| 2026-05-07 19:20 | 51.30586 | 12.19328 | 4481 ft | 235 kts | 264° |
| 2026-05-07 19:20 | 51.30394 | 12.16727 | 4106 ft | 236 kts | 264° |
| 2026-05-07 19:20 | 51.30207 | 12.14201 | 3998 ft | 230 kts | 264° |
| 2026-05-07 19:20 | 51.30019 | 12.11660 | 3993 ft | 231 kts | 264° |
| 2026-05-07 19:21 | 51.29830 | 12.09115 | 3983 ft | 230 kts | 264° |
| 2026-05-07 19:21 | 51.29641 | 12.06567 | 3996 ft | 231 kts | 264° |
| 2026-05-07 19:21 | 51.29453 | 12.04026 | 3981 ft | 231 kts | 264° |
| 2026-05-07 19:21 | 51.29264 | 12.01472 | 3996 ft | 231 kts | 264° |
| 2026-05-07 19:22 | 51.29073 | 11.98925 | 3988 ft | 233 kts | 264° |
| 2026-05-07 19:22 | 51.28880 | 11.96336 | 3992 ft | 234 kts | 264° |
| 2026-05-07 19:22 | 51.28928 | 11.93769 | 3965 ft | 231 kts | 288° |
| 2026-05-07 19:22 | 51.29756 | 11.91645 | 4009 ft | 228 kts | 319° |
| 2026-05-07 19:23 | 51.31118 | 11.90445 | 3818 ft | 221 kts | 342° |
| 2026-05-07 19:23 | 51.32587 | 11.89693 | 3411 ft | 224 kts | 344° |
| 2026-05-07 19:23 | 51.34083 | 11.89017 | 3044 ft | 221 kts | 352° |
| 2026-05-07 19:23 | 51.35582 | 11.89277 | 2997 ft | 219 kts | 20° |
| 2026-05-07 19:24 | 51.36997 | 11.90229 | 3001 ft | 220 kts | 24° |
| 2026-05-07 19:24 | 51.38289 | 11.91508 | 2977 ft | 219 kts | 46° |
| 2026-05-07 19:24 | 51.39232 | 11.93427 | 3004 ft | 221 kts | 54° |
| 2026-05-07 19:24 | 51.39895 | 11.95601 | 2972 ft | 213 kts | 77° |
| 2026-05-07 19:25 | 51.40074 | 11.97807 | 2972 ft | 187 kts | 83° |
| 2026-05-07 19:25 | 51.40178 | 11.99764 | 2971 ft | 172 kts | 84° |
| 2026-05-07 19:25 | 51.40274 | 12.01683 | 2842 ft | 174 kts | 84° |
| 2026-05-07 19:25 | 51.40367 | 12.03573 | 2582 ft | 169 kts | 84° |
| 2026-05-07 19:26 | 51.40458 | 12.05463 | 2370 ft | 170 kts | 84° |
| 2026-05-07 19:26 | 51.40549 | 12.07359 | 2114 ft | 171 kts | 84° |
| 2026-05-07 19:26 | 51.40639 | 12.09265 | 1875 ft | 171 kts | 84° |
| 2026-05-07 19:26 | 51.40728 | 12.11160 | 1632 ft | 170 kts | 84° |
| 2026-05-07 19:27 | 51.40814 | 12.13013 | 1385 ft | 161 kts | 84° |
| 2026-05-07 19:27 | 51.40895 | 12.14750 | 1144 ft | 155 kts | 84° |
| 2026-05-07 19:27 | 51.40988 | 12.16467 | 948 ft | 155 kts | 84° |
| 2026-05-07 19:27 | 51.41047 | 12.18185 | 736 ft | 154 kts | 84° |
| 2026-05-07 19:28 | 51.41138 | 12.19883 | 535 ft | 151 kts | 83° |
| 2026-05-07 19:28 | 51.41221 | 12.21523 | 461 ft | 134 kts | 84° |
| 2026-05-07 19:28 | 51.41264 | 12.22694 | 472 ft | 77 kts | 86° |
| 2026-05-07 19:28 | 51.41293 | 12.23304 | 472 ft | 47 kts | 85° |
| 2026-05-07 19:29 | 51.41314 | 12.23758 | 481 ft | 35 kts | 91° |
| 2026-05-07 19:29 | 51.41253 | 12.24090 | 473 ft | 21 kts | 109° |
| 2026-05-07 19:29 | 51.41233 | 12.24188 | 476 ft | 8 kts | 109° |